sensor_id;sensor_type;location;lat;lon;timestamp;temperature;humidity
25877;DHT22;13692;47.480;19.216;2023-02-01T00:02:15;4.60;99.90
25877;DHT22;13692;47.480;19.216;2023-02-01T00:04:42;4.70;99.90
25877;DHT22;13692;47.480;19.216;2023-02-01T00:07:09;4.70;99.90
25877;DHT22;13692;47.480;19.216;2023-02-01T00:09:39;4.80;99.90
25877;DHT22;13692;47.480;19.216;2023-02-01T00:12:06;4.80;99.90
25877;DHT22;13692;47.480;19.216;2023-02-01T00:14:33;4.90;99.90
25877;DHT22;13692;47.480;19.216;2023-02-01T00:17:08;4.90;99.90
25877;DHT22;13692;47.480;19.216;2023-02-01T00:19:35;4.80;99.90
25877;DHT22;13692;47.480;19.216;2023-02-01T00:22:02;4.80;99.90
25877;DHT22;13692;47.480;19.216;2023-02-01T00:24:29;4.80;99.90
25877;DHT22;13692;47.480;19.216;2023-02-01T00:26:55;4.80;99.90
25877;DHT22;13692;47.480;19.216;2023-02-01T00:29:22;4.90;99.90
25877;DHT22;13692;47.480;19.216;2023-02-01T00:31:50;4.90;99.90
25877;DHT22;13692;47.480;19.216;2023-02-01T00:34:19;4.80;99.90
25877;DHT22;13692;47.480;19.216;2023-02-01T00:36:47;4.80;99.90
25877;DHT22;13692;47.480;19.216;2023-02-01T00:39:15;4.90;99.90
25877;DHT22;13692;47.480;19.216;2023-02-01T00:41:42;4.90;99.90
25877;DHT22;13692;47.480;19.216;2023-02-01T00:44:09;4.80;99.90
25877;DHT22;13692;47.480;19.216;2023-02-01T00:46:36;4.80;99.90
25877;DHT22;13692;47.480;19.216;2023-02-01T00:49:03;4.80;99.90
25877;DHT22;13692;47.480;19.216;2023-02-01T00:51:30;4.90;99.90
25877;DHT22;13692;47.480;19.216;2023-02-01T00:53:57;4.90;99.90
25877;DHT22;13692;47.480;19.216;2023-02-01T00:56:24;4.90;99.90
25877;DHT22;13692;47.480;19.216;2023-02-01T00:58:54;4.80;99.90
25877;DHT22;13692;47.480;19.216;2023-02-01T01:01:27;4.90;99.90
25877;DHT22;13692;47.480;19.216;2023-02-01T01:03:57;4.90;99.90
25877;DHT22;13692;47.480;19.216;2023-02-01T01:06:27;4.90;99.90
25877;DHT22;13692;47.480;19.216;2023-02-01T01:08:55;4.90;99.90
25877;DHT22;13692;47.480;19.216;2023-02-01T01:11:25;4.90;99.90
25877;DHT22;13692;47.480;19.216;2023-02-01T01:13:55;4.90;99.90
25877;DHT22;13692;47.480;19.216;2023-02-01T01:16:23;4.90;99.90
25877;DHT22;13692;47.480;19.216;2023-02-01T01:18:51;4.90;99.90
25877;DHT22;13692;47.480;19.216;2023-02-01T01:21:18;4.90;99.90
25877;DHT22;13692;47.480;19.216;2023-02-01T01:23:46;4.90;99.90
25877;DHT22;13692;47.480;19.216;2023-02-01T01:26:21;4.90;99.90
25877;DHT22;13692;47.480;19.216;2023-02-01T01:28:50;4.90;99.90
25877;DHT22;13692;47.480;19.216;2023-02-01T01:31:19;4.90;99.90
25877;DHT22;13692;47.480;19.216;2023-02-01T01:33:54;4.90;99.90
25877;DHT22;13692;47.480;19.216;2023-02-01T01:36:22;4.90;99.90
25877;DHT22;13692;47.480;19.216;2023-02-01T01:38:49;4.80;99.90
25877;DHT22;13692;47.480;19.216;2023-02-01T01:41:22;4.90;99.90
25877;DHT22;13692;47.480;19.216;2023-02-01T01:46:25;4.90;99.90
25877;DHT22;13692;47.480;19.216;2023-02-01T01:49:20;4.90;99.90
25877;DHT22;13692;47.480;19.216;2023-02-01T01:51:56;5.00;99.90
25877;DHT22;13692;47.480;19.216;2023-02-01T01:56:58;5.00;99.90
25877;DHT22;13692;47.480;19.216;2023-02-01T01:59:27;5.00;99.90
25877;DHT22;13692;47.480;19.216;2023-02-01T02:01:55;5.00;99.90
25877;DHT22;13692;47.480;19.216;2023-02-01T02:04:23;5.00;99.90
25877;DHT22;13692;47.480;19.216;2023-02-01T02:07:13;4.90;99.90
25877;DHT22;13692;47.480;19.216;2023-02-01T02:09:40;4.90;99.90
25877;DHT22;13692;47.480;19.216;2023-02-01T02:12:25;4.80;99.90
25877;DHT22;13692;47.480;19.216;2023-02-01T02:14:52;4.70;99.90
25877;DHT22;13692;47.480;19.216;2023-02-01T02:37:45;4.60;99.90
25877;DHT22;13692;47.480;19.216;2023-02-01T02:40:32;4.70;99.90
25877;DHT22;13692;47.480;19.216;2023-02-01T02:43:25;4.70;99.90
25877;DHT22;13692;47.480;19.216;2023-02-01T02:49:48;4.90;99.90
25877;DHT22;13692;47.480;19.216;2023-02-01T02:52:41;4.90;99.90
25877;DHT22;13692;47.480;19.216;2023-02-01T02:55:28;4.90;99.90
25877;DHT22;13692;47.480;19.216;2023-02-01T02:57:58;4.90;99.90
25877;DHT22;13692;47.480;19.216;2023-02-01T03:00:44;4.90;99.90
25877;DHT22;13692;47.480;19.216;2023-02-01T03:03:30;4.90;99.90
25877;DHT22;13692;47.480;19.216;2023-02-01T03:06:17;4.90;99.90
25877;DHT22;13692;47.480;19.216;2023-02-01T03:08:45;4.90;99.90
25877;DHT22;13692;47.480;19.216;2023-02-01T03:11:14;4.90;99.90
25877;DHT22;13692;47.480;19.216;2023-02-01T03:13:57;4.90;99.90
25877;DHT22;13692;47.480;19.216;2023-02-01T03:16:33;4.90;99.90
25877;DHT22;13692;47.480;19.216;2023-02-01T03:24:01;5.00;99.90
25877;DHT22;13692;47.480;19.216;2023-02-01T03:26:31;5.00;99.90
25877;DHT22;13692;47.480;19.216;2023-02-01T03:29:14;5.00;99.90
25877;DHT22;13692;47.480;19.216;2023-02-01T03:31:43;5.00;99.90
25877;DHT22;13692;47.480;19.216;2023-02-01T03:34:12;5.10;99.90
25877;DHT22;13692;47.480;19.216;2023-02-01T03:36:49;5.10;99.90
25877;DHT22;13692;47.480;19.216;2023-02-01T03:39:43;5.10;99.90
25877;DHT22;13692;47.480;19.216;2023-02-01T03:42:58;5.20;99.90
25877;DHT22;13692;47.480;19.216;2023-02-01T03:45:26;5.10;99.90
25877;DHT22;13692;47.480;19.216;2023-02-01T03:47:56;5.10;99.90
25877;DHT22;13692;47.480;19.216;2023-02-01T03:50:24;5.10;99.90
25877;DHT22;13692;47.480;19.216;2023-02-01T03:53:03;5.00;99.90
25877;DHT22;13692;47.480;19.216;2023-02-01T03:55:32;5.00;99.90
25877;DHT22;13692;47.480;19.216;2023-02-01T04:00:35;5.10;99.90
25877;DHT22;13692;47.480;19.216;2023-02-01T04:03:04;5.20;99.90
25877;DHT22;13692;47.480;19.216;2023-02-01T04:05:31;5.10;99.90
25877;DHT22;13692;47.480;19.216;2023-02-01T04:07:58;5.10;99.90
25877;DHT22;13692;47.480;19.216;2023-02-01T04:10:25;5.10;99.90
25877;DHT22;13692;47.480;19.216;2023-02-01T04:12:53;5.10;99.90
25877;DHT22;13692;47.480;19.216;2023-02-01T04:15:19;5.10;99.90
25877;DHT22;13692;47.480;19.216;2023-02-01T04:17:46;5.10;99.90
25877;DHT22;13692;47.480;19.216;2023-02-01T04:20:13;5.10;99.90
25877;DHT22;13692;47.480;19.216;2023-02-01T04:22:40;5.10;99.90
25877;DHT22;13692;47.480;19.216;2023-02-01T04:25:07;5.00;99.90
25877;DHT22;13692;47.480;19.216;2023-02-01T04:27:35;5.00;99.90
25877;DHT22;13692;47.480;19.216;2023-02-01T04:30:04;5.00;99.90
25877;DHT22;13692;47.480;19.216;2023-02-01T04:32:31;4.90;99.90
25877;DHT22;13692;47.480;19.216;2023-02-01T04:34:58;4.80;99.90
25877;DHT22;13692;47.480;19.216;2023-02-01T04:37:25;4.80;99.90
25877;DHT22;13692;47.480;19.216;2023-02-01T04:39:52;4.80;99.90
25877;DHT22;13692;47.480;19.216;2023-02-01T04:42:18;4.80;99.90
25877;DHT22;13692;47.480;19.216;2023-02-01T04:44:45;4.80;99.90
25877;DHT22;13692;47.480;19.216;2023-02-01T04:47:12;4.80;99.90
25877;DHT22;13692;47.480;19.216;2023-02-01T04:49:39;4.80;99.90
25877;DHT22;13692;47.480;19.216;2023-02-01T04:52:07;4.70;99.90
25877;DHT22;13692;47.480;19.216;2023-02-01T04:54:34;4.70;99.90
25877;DHT22;13692;47.480;19.216;2023-02-01T04:57:01;4.80;99.90
25877;DHT22;13692;47.480;19.216;2023-02-01T04:59:28;4.80;99.90
25877;DHT22;13692;47.480;19.216;2023-02-01T05:01:55;4.80;99.90
25877;DHT22;13692;47.480;19.216;2023-02-01T05:04:22;4.80;99.90
25877;DHT22;13692;47.480;19.216;2023-02-01T05:06:49;4.80;99.90
25877;DHT22;13692;47.480;19.216;2023-02-01T05:09:16;4.80;99.90
25877;DHT22;13692;47.480;19.216;2023-02-01T05:11:43;4.80;99.90
25877;DHT22;13692;47.480;19.216;2023-02-01T05:14:28;4.80;99.90
25877;DHT22;13692;47.480;19.216;2023-02-01T05:16:55;4.80;99.90
25877;DHT22;13692;47.480;19.216;2023-02-01T05:19:22;4.80;99.90
25877;DHT22;13692;47.480;19.216;2023-02-01T05:21:49;4.70;99.90
25877;DHT22;13692;47.480;19.216;2023-02-01T05:24:16;4.80;99.90
25877;DHT22;13692;47.480;19.216;2023-02-01T05:26:48;4.80;99.90
25877;DHT22;13692;47.480;19.216;2023-02-01T05:29:16;4.80;99.90
25877;DHT22;13692;47.480;19.216;2023-02-01T05:31:45;4.80;99.90
25877;DHT22;13692;47.480;19.216;2023-02-01T05:34:13;4.80;99.90
25877;DHT22;13692;47.480;19.216;2023-02-01T05:36:40;4.80;99.90
25877;DHT22;13692;47.480;19.216;2023-02-01T05:39:07;4.80;99.90
25877;DHT22;13692;47.480;19.216;2023-02-01T05:41:34;4.80;99.90
25877;DHT22;13692;47.480;19.216;2023-02-01T05:44:01;4.80;99.90
25877;DHT22;13692;47.480;19.216;2023-02-01T05:46:29;4.80;99.90
25877;DHT22;13692;47.480;19.216;2023-02-01T05:48:56;4.80;99.90
25877;DHT22;13692;47.480;19.216;2023-02-01T05:51:23;4.80;99.90
25877;DHT22;13692;47.480;19.216;2023-02-01T05:53:50;4.80;99.90
25877;DHT22;13692;47.480;19.216;2023-02-01T05:56:17;4.80;99.90
25877;DHT22;13692;47.480;19.216;2023-02-01T05:58:44;4.90;99.90
25877;DHT22;13692;47.480;19.216;2023-02-01T06:01:11;4.90;99.90
25877;DHT22;13692;47.480;19.216;2023-02-01T06:03:38;4.70;99.90
25877;DHT22;13692;47.480;19.216;2023-02-01T06:06:05;4.90;99.90
25877;DHT22;13692;47.480;19.216;2023-02-01T06:08:32;4.90;99.90
25877;DHT22;13692;47.480;19.216;2023-02-01T06:11:01;4.90;99.90
25877;DHT22;13692;47.480;19.216;2023-02-01T06:13:28;4.90;99.90
25877;DHT22;13692;47.480;19.216;2023-02-01T06:15:57;4.90;99.90
25877;DHT22;13692;47.480;19.216;2023-02-01T06:18:24;5.00;99.90
25877;DHT22;13692;47.480;19.216;2023-02-01T06:20:53;5.00;99.90
25877;DHT22;13692;47.480;19.216;2023-02-01T06:23:20;5.00;99.90
25877;DHT22;13692;47.480;19.216;2023-02-01T06:25:57;5.00;99.90
25877;DHT22;13692;47.480;19.216;2023-02-01T06:28:26;5.00;99.90
25877;DHT22;13692;47.480;19.216;2023-02-01T06:30:54;5.00;99.90
25877;DHT22;13692;47.480;19.216;2023-02-01T06:33:21;5.00;99.90
25877;DHT22;13692;47.480;19.216;2023-02-01T06:35:48;5.00;99.90
25877;DHT22;13692;47.480;19.216;2023-02-01T06:38:15;5.10;99.90
25877;DHT22;13692;47.480;19.216;2023-02-01T06:40:42;5.10;99.90
25877;DHT22;13692;47.480;19.216;2023-02-01T06:43:10;5.20;99.90
25877;DHT22;13692;47.480;19.216;2023-02-01T06:45:37;5.30;99.90
25877;DHT22;13692;47.480;19.216;2023-02-01T06:48:05;5.30;99.90
25877;DHT22;13692;47.480;19.216;2023-02-01T06:50:32;5.30;99.90
25877;DHT22;13692;47.480;19.216;2023-02-01T06:52:59;5.30;99.90
25877;DHT22;13692;47.480;19.216;2023-02-01T06:55:26;5.40;99.90
25877;DHT22;13692;47.480;19.216;2023-02-01T06:57:54;5.40;99.90
25877;DHT22;13692;47.480;19.216;2023-02-01T07:00:22;5.50;99.90
25877;DHT22;13692;47.480;19.216;2023-02-01T07:02:50;5.60;99.90
25877;DHT22;13692;47.480;19.216;2023-02-01T07:05:17;5.60;99.90
25877;DHT22;13692;47.480;19.216;2023-02-01T07:07:44;5.60;99.90
25877;DHT22;13692;47.480;19.216;2023-02-01T07:10:12;5.70;99.90
25877;DHT22;13692;47.480;19.216;2023-02-01T07:12:39;5.80;99.90
25877;DHT22;13692;47.480;19.216;2023-02-01T07:15:06;5.90;99.90
25877;DHT22;13692;47.480;19.216;2023-02-01T07:17:33;6.10;99.90
25877;DHT22;13692;47.480;19.216;2023-02-01T07:20:00;6.20;99.90
25877;DHT22;13692;47.480;19.216;2023-02-01T07:22:28;6.40;99.90
25877;DHT22;13692;47.480;19.216;2023-02-01T07:24:55;6.70;99.90
25877;DHT22;13692;47.480;19.216;2023-02-01T07:27:22;6.90;99.90
25877;DHT22;13692;47.480;19.216;2023-02-01T07:29:51;7.10;99.90
25877;DHT22;13692;47.480;19.216;2023-02-01T07:32:19;7.40;99.90
25877;DHT22;13692;47.480;19.216;2023-02-01T07:34:46;7.70;99.90
25877;DHT22;13692;47.480;19.216;2023-02-01T07:37:13;7.90;99.90
25877;DHT22;13692;47.480;19.216;2023-02-01T07:39:40;8.10;99.90
25877;DHT22;13692;47.480;19.216;2023-02-01T07:42:06;8.20;99.90
25877;DHT22;13692;47.480;19.216;2023-02-01T07:44:33;8.40;99.90
25877;DHT22;13692;47.480;19.216;2023-02-01T07:47:00;8.50;99.90
25877;DHT22;13692;47.480;19.216;2023-02-01T07:49:27;8.70;99.90
25877;DHT22;13692;47.480;19.216;2023-02-01T07:51:54;8.80;99.90
25877;DHT22;13692;47.480;19.216;2023-02-01T07:54:21;9.00;99.90
25877;DHT22;13692;47.480;19.216;2023-02-01T07:56:48;9.20;99.90
25877;DHT22;13692;47.480;19.216;2023-02-01T07:59:15;9.40;99.90
25877;DHT22;13692;47.480;19.216;2023-02-01T08:01:42;9.50;99.90
25877;DHT22;13692;47.480;19.216;2023-02-01T08:04:11;9.70;99.90
25877;DHT22;13692;47.480;19.216;2023-02-01T08:06:40;9.90;99.90
25877;DHT22;13692;47.480;19.216;2023-02-01T08:09:07;10.10;99.90
25877;DHT22;13692;47.480;19.216;2023-02-01T08:11:34;10.20;99.90
25877;DHT22;13692;47.480;19.216;2023-02-01T08:14:04;10.20;99.90
25877;DHT22;13692;47.480;19.216;2023-02-01T08:16:33;10.00;99.90
25877;DHT22;13692;47.480;19.216;2023-02-01T08:19:02;9.80;99.90
25877;DHT22;13692;47.480;19.216;2023-02-01T08:21:34;9.60;99.90
25877;DHT22;13692;47.480;19.216;2023-02-01T08:24:06;9.40;99.90
25877;DHT22;13692;47.480;19.216;2023-02-01T08:26:34;9.20;99.90
25877;DHT22;13692;47.480;19.216;2023-02-01T08:29:03;9.20;99.90
25877;DHT22;13692;47.480;19.216;2023-02-01T08:31:31;9.30;99.90
25877;DHT22;13692;47.480;19.216;2023-02-01T08:34:00;9.20;99.90
25877;DHT22;13692;47.480;19.216;2023-02-01T08:36:29;9.30;99.90
25877;DHT22;13692;47.480;19.216;2023-02-01T08:38:57;9.60;99.90
25877;DHT22;13692;47.480;19.216;2023-02-01T08:41:26;9.70;99.90
25877;DHT22;13692;47.480;19.216;2023-02-01T08:43:54;9.90;99.90
25877;DHT22;13692;47.480;19.216;2023-02-01T08:46:22;10.10;99.90
25877;DHT22;13692;47.480;19.216;2023-02-01T08:48:50;10.10;99.90
25877;DHT22;13692;47.480;19.216;2023-02-01T08:51:19;10.10;99.90
25877;DHT22;13692;47.480;19.216;2023-02-01T08:53:46;10.10;99.90
25877;DHT22;13692;47.480;19.216;2023-02-01T08:56:15;10.10;99.90
25877;DHT22;13692;47.480;19.216;2023-02-01T08:58:43;9.90;99.90
25877;DHT22;13692;47.480;19.216;2023-02-01T09:01:12;9.80;99.90
25877;DHT22;13692;47.480;19.216;2023-02-01T09:03:40;9.80;99.90
25877;DHT22;13692;47.480;19.216;2023-02-01T09:06:10;10.10;99.90
25877;DHT22;13692;47.480;19.216;2023-02-01T09:08:38;10.40;99.90
25877;DHT22;13692;47.480;19.216;2023-02-01T09:11:08;10.60;99.90
25877;DHT22;13692;47.480;19.216;2023-02-01T09:13:37;10.40;99.90
25877;DHT22;13692;47.480;19.216;2023-02-01T09:16:04;10.40;99.90
25877;DHT22;13692;47.480;19.216;2023-02-01T09:18:31;10.70;99.90
25877;DHT22;13692;47.480;19.216;2023-02-01T09:20:58;10.90;99.90
25877;DHT22;13692;47.480;19.216;2023-02-01T09:23:25;11.40;99.90
25877;DHT22;13692;47.480;19.216;2023-02-01T09:25:52;11.90;99.90
25877;DHT22;13692;47.480;19.216;2023-02-01T09:28:19;12.50;99.90
25877;DHT22;13692;47.480;19.216;2023-02-01T09:30:46;12.90;99.90
25877;DHT22;13692;47.480;19.216;2023-02-01T09:33:13;13.30;99.90
25877;DHT22;13692;47.480;19.216;2023-02-01T09:35:41;13.50;99.60
25877;DHT22;13692;47.480;19.216;2023-02-01T09:38:08;13.70;99.20
25877;DHT22;13692;47.480;19.216;2023-02-01T09:40:35;13.70;98.70
25877;DHT22;13692;47.480;19.216;2023-02-01T09:45:43;13.40;98.80
25877;DHT22;13692;47.480;19.216;2023-02-01T09:48:21;13.00;98.60
25877;DHT22;13692;47.480;19.216;2023-02-01T09:50:55;12.60;99.20
25877;DHT22;13692;47.480;19.216;2023-02-01T09:53:37;12.10;99.90
25877;DHT22;13692;47.480;19.216;2023-02-01T09:56:07;11.50;99.90
25877;DHT22;13692;47.480;19.216;2023-02-01T09:58:41;11.20;99.90
25877;DHT22;13692;47.480;19.216;2023-02-01T10:01:20;10.80;99.90
25877;DHT22;13692;47.480;19.216;2023-02-01T10:03:48;10.40;99.90
25877;DHT22;13692;47.480;19.216;2023-02-01T10:18:11;11.00;99.90
25877;DHT22;13692;47.480;19.216;2023-02-01T10:21:04;11.50;99.90
25877;DHT22;13692;47.480;19.216;2023-02-01T10:23:46;11.70;99.90
25877;DHT22;13692;47.480;19.216;2023-02-01T10:26:26;11.80;99.90
25877;DHT22;13692;47.480;19.216;2023-02-01T10:29:01;11.80;99.90
25877;DHT22;13692;47.480;19.216;2023-02-01T10:31:33;11.50;99.90
25877;DHT22;13692;47.480;19.216;2023-02-01T10:34:10;11.20;99.90
25877;DHT22;13692;47.480;19.216;2023-02-01T10:36:42;10.90;99.90
25877;DHT22;13692;47.480;19.216;2023-02-01T10:39:15;10.70;99.90
25877;DHT22;13692;47.480;19.216;2023-02-01T10:41:42;10.60;99.90
25877;DHT22;13692;47.480;19.216;2023-02-01T10:44:15;10.80;99.90
25877;DHT22;13692;47.480;19.216;2023-02-01T10:46:43;10.90;99.90
25877;DHT22;13692;47.480;19.216;2023-02-01T10:49:20;10.90;99.90
25877;DHT22;13692;47.480;19.216;2023-02-01T10:54:36;10.80;99.90
25877;DHT22;13692;47.480;19.216;2023-02-01T10:57:23;11.00;99.90
25877;DHT22;13692;47.480;19.216;2023-02-01T10:59:52;11.30;99.90
25877;DHT22;13692;47.480;19.216;2023-02-01T11:02:34;11.30;99.90
25877;DHT22;13692;47.480;19.216;2023-02-01T11:05:07;11.00;99.90
25877;DHT22;13692;47.480;19.216;2023-02-01T11:07:39;11.10;99.90
25877;DHT22;13692;47.480;19.216;2023-02-01T11:10:39;11.10;99.90
25877;DHT22;13692;47.480;19.216;2023-02-01T11:13:14;11.00;99.90
25877;DHT22;13692;47.480;19.216;2023-02-01T11:15:44;10.80;99.90
25877;DHT22;13692;47.480;19.216;2023-02-01T11:18:20;10.80;99.90
25877;DHT22;13692;47.480;19.216;2023-02-01T11:20:51;10.90;99.90
25877;DHT22;13692;47.480;19.216;2023-02-01T11:23:22;10.90;99.90
25877;DHT22;13692;47.480;19.216;2023-02-01T11:25:53;10.60;99.90
25877;DHT22;13692;47.480;19.216;2023-02-01T11:28:24;10.50;99.90
25877;DHT22;13692;47.480;19.216;2023-02-01T11:30:55;10.40;99.90
25877;DHT22;13692;47.480;19.216;2023-02-01T11:33:32;10.30;99.90
25877;DHT22;13692;47.480;19.216;2023-02-01T11:36:13;10.30;99.90
25877;DHT22;13692;47.480;19.216;2023-02-01T11:41:32;10.30;99.90
25877;DHT22;13692;47.480;19.216;2023-02-01T11:44:01;10.30;99.90
25877;DHT22;13692;47.480;19.216;2023-02-01T11:46:37;10.30;99.90
25877;DHT22;13692;47.480;19.216;2023-02-01T11:49:25;10.20;99.90
25877;DHT22;13692;47.480;19.216;2023-02-01T11:57:44;9.80;99.90
25877;DHT22;13692;47.480;19.216;2023-02-01T12:09:15;8.80;99.90
25877;DHT22;13692;47.480;19.216;2023-02-01T12:20:28;8.60;99.90
25877;DHT22;13692;47.480;19.216;2023-02-01T12:31:30;8.30;99.90
25877;DHT22;13692;47.480;19.216;2023-02-01T12:39:53;7.90;99.90
25877;DHT22;13692;47.480;19.216;2023-02-01T12:42:29;7.80;99.90
25877;DHT22;13692;47.480;19.216;2023-02-01T12:45:15;7.70;99.90
25877;DHT22;13692;47.480;19.216;2023-02-01T12:47:56;7.60;99.90
25877;DHT22;13692;47.480;19.216;2023-02-01T12:50:42;7.40;99.90
25877;DHT22;13692;47.480;19.216;2023-02-01T12:53:42;7.20;99.90
25877;DHT22;13692;47.480;19.216;2023-02-01T12:59:01;6.70;99.90
25877;DHT22;13692;47.480;19.216;2023-02-01T13:01:44;6.60;99.90
25877;DHT22;13692;47.480;19.216;2023-02-01T13:07:23;6.50;99.90
25877;DHT22;13692;47.480;19.216;2023-02-01T13:10:04;6.50;99.90
25877;DHT22;13692;47.480;19.216;2023-02-01T13:12:37;6.60;99.90
25877;DHT22;13692;47.480;19.216;2023-02-01T13:15:26;6.70;99.90
25877;DHT22;13692;47.480;19.216;2023-02-01T13:17:59;6.80;99.90
25877;DHT22;13692;47.480;19.216;2023-02-01T13:20:45;7.00;99.90
25877;DHT22;13692;47.480;19.216;2023-02-01T13:23:29;7.20;99.90
25877;DHT22;13692;47.480;19.216;2023-02-01T13:25:57;7.40;99.90
25877;DHT22;13692;47.480;19.216;2023-02-01T13:42:13;6.70;99.90
25877;DHT22;13692;47.480;19.216;2023-02-01T13:44:50;6.70;99.90
25877;DHT22;13692;47.480;19.216;2023-02-01T13:47:31;6.70;99.90
25877;DHT22;13692;47.480;19.216;2023-02-01T13:53:04;6.70;99.90
25877;DHT22;13692;47.480;19.216;2023-02-01T13:55:43;6.70;99.90
25877;DHT22;13692;47.480;19.216;2023-02-01T14:01:34;6.60;99.90
25877;DHT22;13692;47.480;19.216;2023-02-01T14:04:04;6.60;99.90
25877;DHT22;13692;47.480;19.216;2023-02-01T14:11:41;6.50;99.90
25877;DHT22;13692;47.480;19.216;2023-02-01T14:19:37;6.70;99.90
25877;DHT22;13692;47.480;19.216;2023-02-01T14:24:56;6.80;99.90
25877;DHT22;13692;47.480;19.216;2023-02-01T14:27:29;6.90;99.90
25877;DHT22;13692;47.480;19.216;2023-02-01T14:30:04;6.80;99.90
25877;DHT22;13692;47.480;19.216;2023-02-01T14:32:36;6.70;99.90
25877;DHT22;13692;47.480;19.216;2023-02-01T14:35:28;6.60;99.90
25877;DHT22;13692;47.480;19.216;2023-02-01T14:38:00;6.50;99.90
25877;DHT22;13692;47.480;19.216;2023-02-01T14:40:31;6.40;99.90
25877;DHT22;13692;47.480;19.216;2023-02-01T14:42:58;6.30;99.90
25877;DHT22;13692;47.480;19.216;2023-02-01T14:50:46;6.30;99.90
25877;DHT22;13692;47.480;19.216;2023-02-01T15:11:29;6.10;99.90
25877;DHT22;13692;47.480;19.216;2023-02-01T15:13:57;6.00;99.90
25877;DHT22;13692;47.480;19.216;2023-02-01T15:16:26;5.90;99.90
25877;DHT22;13692;47.480;19.216;2023-02-01T15:19:12;6.00;99.90
25877;DHT22;13692;47.480;19.216;2023-02-01T15:21:45;6.10;99.90
25877;DHT22;13692;47.480;19.216;2023-02-01T15:24:18;6.10;99.90
25877;DHT22;13692;47.480;19.216;2023-02-01T15:26:45;6.20;99.90
25877;DHT22;13692;47.480;19.216;2023-02-01T15:29:13;6.20;99.90
25877;DHT22;13692;47.480;19.216;2023-02-01T15:31:44;6.30;99.90
25877;DHT22;13692;47.480;19.216;2023-02-01T15:34:12;6.30;99.90
25877;DHT22;13692;47.480;19.216;2023-02-01T15:36:40;6.30;99.90
25877;DHT22;13692;47.480;19.216;2023-02-01T15:39:24;6.20;99.90
25877;DHT22;13692;47.480;19.216;2023-02-01T15:41:57;6.20;99.90
25877;DHT22;13692;47.480;19.216;2023-02-01T15:44:32;6.20;99.90
25877;DHT22;13692;47.480;19.216;2023-02-01T15:47:07;6.10;99.90
25877;DHT22;13692;47.480;19.216;2023-02-01T15:49:39;6.10;99.90
25877;DHT22;13692;47.480;19.216;2023-02-01T15:52:41;6.10;99.90
25877;DHT22;13692;47.480;19.216;2023-02-01T15:55:35;6.10;99.90
25877;DHT22;13692;47.480;19.216;2023-02-01T15:58:17;6.00;99.90
25877;DHT22;13692;47.480;19.216;2023-02-01T16:03:39;6.00;99.90
25877;DHT22;13692;47.480;19.216;2023-02-01T16:06:26;5.90;99.90
25877;DHT22;13692;47.480;19.216;2023-02-01T16:09:18;5.90;99.90
25877;DHT22;13692;47.480;19.216;2023-02-01T16:12:00;5.90;99.90
25877;DHT22;13692;47.480;19.216;2023-02-01T16:14:27;5.90;99.90
25877;DHT22;13692;47.480;19.216;2023-02-01T16:16:57;5.90;99.90
25877;DHT22;13692;47.480;19.216;2023-02-01T16:19:24;5.90;99.90
25877;DHT22;13692;47.480;19.216;2023-02-01T16:21:55;6.00;99.90
25877;DHT22;13692;47.480;19.216;2023-02-01T16:24:22;6.00;99.90
25877;DHT22;13692;47.480;19.216;2023-02-01T16:26:54;6.10;99.90
25877;DHT22;13692;47.480;19.216;2023-02-01T16:29:21;6.20;99.90
25877;DHT22;13692;47.480;19.216;2023-02-01T16:31:49;6.20;99.90
25877;DHT22;13692;47.480;19.216;2023-02-01T16:34:17;6.20;99.90
25877;DHT22;13692;47.480;19.216;2023-02-01T16:36:48;6.20;99.90
25877;DHT22;13692;47.480;19.216;2023-02-01T16:39:21;6.20;99.90
25877;DHT22;13692;47.480;19.216;2023-02-01T16:41:49;6.20;99.90
25877;DHT22;13692;47.480;19.216;2023-02-01T16:44:17;6.10;99.90
25877;DHT22;13692;47.480;19.216;2023-02-01T16:46:46;6.10;99.90
25877;DHT22;13692;47.480;19.216;2023-02-01T16:49:23;6.10;99.90
25877;DHT22;13692;47.480;19.216;2023-02-01T16:51:56;6.10;99.90
25877;DHT22;13692;47.480;19.216;2023-02-01T16:54:24;6.10;99.90
25877;DHT22;13692;47.480;19.216;2023-02-01T16:56:51;6.10;99.90
25877;DHT22;13692;47.480;19.216;2023-02-01T16:59:18;6.00;99.90
25877;DHT22;13692;47.480;19.216;2023-02-01T17:01:46;6.00;99.90
25877;DHT22;13692;47.480;19.216;2023-02-01T17:04:14;6.10;99.90
25877;DHT22;13692;47.480;19.216;2023-02-01T17:06:43;6.10;99.90
25877;DHT22;13692;47.480;19.216;2023-02-01T17:09:14;6.10;99.90
25877;DHT22;13692;47.480;19.216;2023-02-01T17:11:42;6.10;99.90
25877;DHT22;13692;47.480;19.216;2023-02-01T17:14:20;6.10;99.90
25877;DHT22;13692;47.480;19.216;2023-02-01T17:16:49;6.10;99.90
25877;DHT22;13692;47.480;19.216;2023-02-01T17:19:20;6.10;99.90
25877;DHT22;13692;47.480;19.216;2023-02-01T17:21:52;6.10;99.90
25877;DHT22;13692;47.480;19.216;2023-02-01T17:24:26;6.10;99.90
25877;DHT22;13692;47.480;19.216;2023-02-01T17:27:04;6.20;99.90
25877;DHT22;13692;47.480;19.216;2023-02-01T17:29:32;6.20;99.90
25877;DHT22;13692;47.480;19.216;2023-02-01T17:32:02;6.10;99.90
25877;DHT22;13692;47.480;19.216;2023-02-01T17:34:32;6.00;99.90
25877;DHT22;13692;47.480;19.216;2023-02-01T17:36:59;5.90;99.90
25877;DHT22;13692;47.480;19.216;2023-02-01T17:39:27;5.80;99.90
25877;DHT22;13692;47.480;19.216;2023-02-01T17:42:13;5.80;99.90
25877;DHT22;13692;47.480;19.216;2023-02-01T17:44:41;5.80;99.90
25877;DHT22;13692;47.480;19.216;2023-02-01T17:47:09;5.70;99.90
25877;DHT22;13692;47.480;19.216;2023-02-01T17:49:37;5.70;99.90
25877;DHT22;13692;47.480;19.216;2023-02-01T17:52:06;5.70;99.90
25877;DHT22;13692;47.480;19.216;2023-02-01T17:54:36;5.60;99.90
25877;DHT22;13692;47.480;19.216;2023-02-01T17:57:13;5.60;99.90
25877;DHT22;13692;47.480;19.216;2023-02-01T17:59:41;5.60;99.90
25877;DHT22;13692;47.480;19.216;2023-02-01T18:02:20;5.70;99.90
25877;DHT22;13692;47.480;19.216;2023-02-01T18:04:49;5.70;99.90
25877;DHT22;13692;47.480;19.216;2023-02-01T18:07:17;5.70;99.90
25877;DHT22;13692;47.480;19.216;2023-02-01T18:09:46;5.90;99.90
25877;DHT22;13692;47.480;19.216;2023-02-01T18:12:22;6.10;99.90
25877;DHT22;13692;47.480;19.216;2023-02-01T18:14:51;6.20;99.90
25877;DHT22;13692;47.480;19.216;2023-02-01T18:17:19;6.30;99.90
25877;DHT22;13692;47.480;19.216;2023-02-01T18:19:47;6.30;99.90
25877;DHT22;13692;47.480;19.216;2023-02-01T18:22:17;6.40;99.90
25877;DHT22;13692;47.480;19.216;2023-02-01T18:24:46;6.40;99.90
25877;DHT22;13692;47.480;19.216;2023-02-01T18:27:14;6.40;99.90
25877;DHT22;13692;47.480;19.216;2023-02-01T18:29:42;6.40;99.90
25877;DHT22;13692;47.480;19.216;2023-02-01T18:32:10;6.30;99.90
25877;DHT22;13692;47.480;19.216;2023-02-01T18:34:38;6.30;99.90